Time;durP1;ratioP1;P1;durP2;ratioP2;P2;SDS_P1;SDS_P2;PMS_P1;PMS_P2;Temp;Humidity;BMP_temperature;BMP_pressure;BME280_temperature;BME280_humidity;BME280_pressure;Samples;Min_cycle;Max_cycle;Signal;HPM_P1;HPM_P2
2023/06/06 00:03:25;;;;;;;6.75;4.13;;;;;;;17.08;74.63;99814.38;12214207;19;20070;-82
2023/06/06 00:07:27;;;;;;;;;;;;;;;17.09;75.73;99808.50;12218119;19;20034;-83
2023/06/06 00:11:28;;;;;;;5.38;3.65;;;;;;;17.18;73.47;99808.69;12191572;19;19927;-81
2023/06/06 00:15:31;;;;;;;5.93;3.70;;;;;;;17.25;74.25;99806.41;12213302;19;20026;-82
2023/06/06 00:19:35;;;;;;;6.53;4.03;;;;;;;17.30;73.71;99802.72;12214604;19;20081;-83
2023/06/06 00:23:37;;;;;;;5.65;3.67;;;;;;;17.30;73.93;99811.91;12189931;19;20055;-81
2023/06/06 00:27:39;;;;;;;6.25;3.72;;;;;;;17.31;73.79;99807.16;12212399;19;20006;-82
2023/06/06 00:31:40;;;;;;;9.13;4.22;;;;;;;17.33;73.30;99818.03;12212817;19;20007;-82
2023/06/06 00:35:42;;;;;;;5.45;3.75;;;;;;;17.38;72.95;99818.81;12188896;19;20033;-82
2023/06/06 00:39:44;;;;;;;7.50;4.13;;;;;;;17.42;73.28;99816.25;12209462;19;20014;-82
2023/06/06 00:43:46;;;;;;;6.45;3.38;;;;;;;17.41;72.79;99818.22;12208848;19;20030;-82
2023/06/06 00:47:48;;;;;;;5.20;3.50;;;;;;;17.37;74.06;99819.94;12189803;19;20013;-82
2023/06/06 00:51:49;;;;;;;5.13;3.50;;;;;;;17.26;75.63;99827.56;12206468;19;20053;-82
2023/06/06 00:55:52;;;;;;;6.97;3.60;;;;;;;17.12;77.33;99826.59;12201889;19;20010;-82
2023/06/06 00:59:54;;;;;;;6.68;3.88;;;;;;;16.95;78.80;99826.19;12208697;19;20010;-82
2023/06/06 01:04:00;;;;;;;6.13;4.10;;;;;;;16.76;79.97;99818.53;12207700;19;20011;-82
2023/06/06 01:08:04;;;;;;;5.38;3.63;;;;;;;16.61;81.14;99826.97;12187052;19;20010;-82
2023/06/06 01:12:30;;;;;;;7.72;3.95;;;;;;;16.44;82.12;99826.53;12210002;19;20020;-82
2023/06/06 01:16:34;;;;;;;5.35;3.72;;;;;;;16.25;82.27;99830.00;12207545;19;20456;-83
2023/06/06 01:20:36;;;;;;;7.57;4.35;;;;;;;16.05;83.51;99825.38;12187141;19;20007;-82
2023/06/06 01:24:47;;;;;;;6.60;3.90;;;;;;;15.87;84.63;99828.81;12207066;19;20034;-82
2023/06/06 01:28:48;;;;;;;7.28;3.80;;;;;;;15.71;85.59;99833.59;12206707;19;20075;-82
2023/06/06 01:33:12;;;;;;;5.15;3.97;;;;;;;15.58;87.11;99839.72;12186160;19;20006;-81
2023/06/06 01:37:48;;;;;;;7.72;4.50;;;;;;;15.42;88.86;99844.47;12205964;19;19999;-81
2023/06/06 01:41:55;;;;;;;6.55;4.97;;;;;;;15.26;88.89;99844.50;12184297;19;20023;-80
2023/06/06 01:45:59;;;;;;;5.90;3.88;;;;;;;15.15;92.08;99842.03;12206295;19;20013;-81
2023/06/06 01:50:03;;;;;;;6.07;3.72;;;;;;;15.08;93.50;99849.78;12184900;19;20003;-81
2023/06/06 01:54:06;;;;;;;6.18;4.07;;;;;;;14.98;95.71;99845.91;12203273;19;20011;-80
2023/06/06 01:58:08;;;;;;;7.05;4.60;;;;;;;14.93;98.53;99847.84;12206402;19;20480;-81
2023/06/06 02:02:11;;;;;;;6.82;4.40;;;;;;;14.85;99.58;99849.25;12190191;19;20012;-80
2023/06/06 02:06:13;;;;;;;10.55;4.38;;;;;;;14.76;100.00;99859.25;12218176;19;20011;-81
2023/06/06 02:10:15;;;;;;;7.40;4.82;;;;;;;14.67;100.00;99861.72;12216137;19;20456;-81
2023/06/06 02:14:18;;;;;;;7.90;4.40;;;;;;;14.62;99.92;99858.13;12192993;19;20011;-81
2023/06/06 02:18:20;;;;;;;6.90;4.07;;;;;;;14.58;100.00;99861.44;12215281;19;20365;-82
2023/06/06 02:22:22;;;;;;;5.43;3.85;;;;;;;14.55;100.00;99864.75;12217747;19;20618;-82
2023/06/06 02:26:24;;;;;;;9.63;4.35;;;;;;;14.49;100.00;99859.47;12195238;19;20111;-82
2023/06/06 02:30:25;;;;;;;8.10;4.03;;;;;;;14.44;100.00;99859.44;12214591;19;20007;-82
2023/06/06 02:34:27;;;;;;;7.65;4.15;;;;;;;14.38;100.00;99860.53;12208454;19;20010;-82
2023/06/06 02:38:29;;;;;;;6.05;3.75;;;;;;;14.32;100.00;99851.38;12194224;19;20011;-81
2023/06/06 02:42:31;;;;;;;8.23;4.38;;;;;;;14.25;100.00;99859.13;12215516;19;20031;-82
2023/06/06 02:46:33;;;;;;;7.60;4.38;;;;;;;14.17;100.00;99865.19;12215251;19;20464;-81
2023/06/06 02:50:35;;;;;;;7.07;4.30;;;;;;;14.12;100.00;99868.78;12191451;19;20017;-81
2023/06/06 02:54:37;;;;;;;5.13;3.97;;;;;;;14.07;100.00;99866.84;12212631;19;20010;-82
2023/06/06 02:58:39;;;;;;;7.20;4.60;;;;;;;14.05;100.00;99862.66;12216511;19;20039;-81
2023/06/06 03:02:41;;;;;;;8.52;4.60;;;;;;;14.01;100.00;99864.28;12192842;19;20330;-81
2023/06/06 03:06:43;;;;;;;7.40;4.70;;;;;;;14.01;100.00;99869.81;12215958;19;20010;-81
2023/06/06 03:10:49;;;;;;;8.18;4.65;;;;;;;13.99;100.00;99866.53;12215794;19;20007;-81
2023/06/06 03:14:51;;;;;;;7.55;4.28;;;;;;;13.96;100.00;99865.13;12189545;19;19999;-82
2023/06/06 03:19:03;;;;;;;6.93;4.85;;;;;;;13.91;100.00;99860.38;12215548;19;20106;-82
2023/06/06 03:23:10;;;;;;;6.50;4.85;;;;;;;13.88;100.00;99873.94;12192588;19;20026;-81
2023/06/06 03:27:13;;;;;;;6.82;4.78;;;;;;;13.84;100.00;99868.13;12216114;19;20118;-83
2023/06/06 03:31:15;;;;;;;7.20;4.70;;;;;;;13.78;100.00;99877.50;12214029;19;20015;-82
2023/06/06 03:35:22;;;;;;;7.05;4.72;;;;;;;13.72;100.00;99872.22;12192310;19;20503;-82
2023/06/06 03:39:25;;;;;;;7.80;5.22;;;;;;;13.66;100.00;99876.88;12217215;19;20084;-82
2023/06/06 03:43:27;;;;;;;7.55;4.13;;;;;;;13.62;100.00;99868.28;12213260;19;20011;-82
2023/06/06 03:47:29;;;;;;;6.57;4.38;;;;;;;13.66;100.00;99874.13;12194051;19;20457;-81
2023/06/06 03:51:31;;;;;;;9.00;5.27;;;;;;;13.69;100.00;99879.13;12214056;19;20098;-80
2023/06/06 03:55:34;;;;;;;8.33;5.60;;;;;;;13.75;100.00;99879.97;12216484;19;21079;-81
2023/06/06 03:59:35;;;;;;;8.33;5.67;;;;;;;13.78;100.00;99893.28;12195035;19;20014;-82
2023/06/06 04:03:37;;;;;;;8.85;4.90;;;;;;;13.81;100.00;99881.69;12215270;19;20017;-82
2023/06/06 04:07:40;;;;;;;6.60;4.30;;;;;;;13.85;100.00;99891.94;12216314;19;20011;-80
2023/06/06 04:11:42;;;;;;;6.85;5.13;;;;;;;13.87;100.00;99881.41;12189063;19;20029;-82
2023/06/06 04:15:45;;;;;;;7.75;5.05;;;;;;;13.88;100.00;99883.09;12214445;19;20033;-81
2023/06/06 04:19:47;;;;;;;7.32;5.38;;;;;;;13.89;100.00;99884.75;12214676;19;20435;-81
2023/06/06 04:23:49;;;;;;;8.10;5.47;;;;;;;13.96;100.00;99883.69;12189473;19;20479;-82
2023/06/06 04:27:51;;;;;;;9.18;5.20;;;;;;;14.01;100.00;99892.84;12214802;19;20467;-82
2023/06/06 04:31:57;;;;;;;9.00;5.20;;;;;;;14.06;100.00;99898.38;12191103;19;20006;-82
2023/06/06 04:36:00;;;;;;;8.57;5.03;;;;;;;14.06;100.00;99901.16;12212130;19;20017;-82
2023/06/06 04:40:07;;;;;;;7.90;4.53;;;;;;;14.13;100.00;99904.53;12211817;19;20120;-82
2023/06/06 04:44:10;;;;;;;8.13;5.05;;;;;;;14.22;100.00;99901.22;12189572;19;20014;-83
2023/06/06 04:48:13;;;;;;;7.15;5.50;;;;;;;14.29;100.00;99902.66;12212141;19;20009;-82
2023/06/06 04:52:16;;;;;;;9.05;5.40;;;;;;;14.38;100.00;99908.50;12211537;19;20010;-82
2023/06/06 04:56:18;;;;;;;8.25;5.40;;;;;;;14.45;100.00;99897.13;12195287;19;20031;-81
2023/06/06 05:00:21;;;;;;;7.10;5.13;;;;;;;14.54;100.00;99898.31;12230028;19;19998;-81
2023/06/06 05:04:24;;;;;;;10.02;6.07;;;;;;;14.63;100.00;99895.81;12218888;19;20003;-81
2023/06/06 05:08:31;;;;;;;7.68;5.63;;;;;;;14.71;100.00;99895.28;12191241;19;20014;-82
2023/06/06 05:12:33;;;;;;;6.28;4.68;;;;;;;14.81;100.00;99895.28;12211247;19;20014;-82
2023/06/06 05:16:35;;;;;;;7.20;5.00;;;;;;;14.90;100.00;99893.66;12213132;19;20014;-83
2023/06/06 05:20:37;;;;;;;7.47;4.95;;;;;;;15.03;100.00;99897.81;12188771;19;20007;-81
2023/06/06 05:24:39;;;;;;;8.50;5.30;;;;;;;15.14;100.00;99904.19;12211166;19;20010;-79
2023/06/06 05:28:41;;;;;;;8.50;5.50;;;;;;;15.25;100.00;99905.84;12213267;19;20031;-84
2023/06/06 05:32:43;;;;;;;9.00;5.40;;;;;;;15.33;100.00;99910.84;12189784;19;20076;-81
2023/06/06 05:36:45;;;;;;;8.18;5.55;;;;;;;15.45;100.00;99905.84;12208342;19;20026;-81
2023/06/06 05:40:47;;;;;;;7.43;5.28;;;;;;;15.61;100.00;99908.56;12208637;19;20121;-81
2023/06/06 05:44:50;;;;;;;7.25;5.40;;;;;;;15.77;100.00;99901.09;12187811;19;20023;-81
2023/06/06 05:48:53;;;;;;;9.32;5.45;;;;;;;15.91;100.00;99904.91;12210373;19;20007;-82
2023/06/06 05:52:57;;;;;;;7.28;5.78;;;;;;;16.05;100.00;99910.72;12187676;19;20338;-81
2023/06/06 05:56:58;;;;;;;9.50;5.63;;;;;;;16.26;100.00;99914.25;12211261;19;20010;-81
2023/06/06 06:01:02;;;;;;;6.43;4.60;;;;;;;16.48;100.00;99902.72;12209709;19;20003;-82
2023/06/06 06:05:06;;;;;;;6.80;4.53;;;;;;;16.72;100.00;99911.22;12187051;19;20041;-81
2023/06/06 06:09:08;;;;;;;9.43;4.95;;;;;;;16.94;100.00;99913.59;12209817;19;20013;-82
2023/06/06 06:13:11;;;;;;;;;;;;;;;17.07;98.29;99911.00;12208154;19;20019;-81
2023/06/06 06:17:14;;;;;;;7.32;4.05;;;;;;;17.32;98.36;99909.13;12188739;19;19922;-81
2023/06/06 06:21:16;;;;;;;7.27;4.57;;;;;;;17.52;97.40;99919.25;12210117;19;20020;-81
2023/06/06 06:25:23;;;;;;;6.75;4.80;;;;;;;17.70;95.74;99915.72;12206991;19;20054;-80
2023/06/06 06:29:26;;;;;;;6.05;4.10;;;;;;;17.91;92.88;99921.94;12187152;19;20007;-81
2023/06/06 06:33:29;;;;;;;6.70;4.37;;;;;;;18.15;91.26;99916.34;12198355;19;20861;-82
2023/06/06 06:37:32;;;;;;;6.82;4.13;;;;;;;18.38;88.47;99919.38;12202119;19;20499;-83
2023/06/06 06:41:38;;;;;;;6.80;4.13;;;;;;;18.64;85.77;99926.28;12162233;19;20030;-82
2023/06/06 06:45:42;;;;;;;5.97;3.90;;;;;;;18.94;81.73;99927.00;12214648;19;20003;-83
2023/06/06 06:49:48;;;;;;;6.55;4.32;;;;;;;19.15;79.93;99921.91;12228012;19;20459;-83
2023/06/06 06:53:52;;;;;;;8.07;4.07;;;;;;;19.40;79.25;99933.81;12203569;19;20365;-83
2023/06/06 07:03:08;;;;;;;6.80;3.90;;;;;;;19.82;74.14;99938.41;12202073;19;20354;-83
2023/06/06 07:07:15;;;;;;;7.25;4.18;;;;;;;20.05;72.51;99933.75;12225095;19;20010;-83
2023/06/06 07:11:19;;;;;;;5.63;3.95;;;;;;;20.17;71.87;99939.66;12201029;19;20017;-85
2023/06/06 07:15:21;;;;;;;7.35;3.72;;;;;;;20.29;69.75;99935.53;12220876;19;20010;-83
2023/06/06 07:19:26;;;;;;;;;;;;;;;20.46;69.92;99944.09;12225937;19;20016;-84
2023/06/06 07:23:40;;;;;;;5.80;3.80;;;;;;;20.69;67.08;99953.44;12219638;19;20314;-84
2023/06/06 07:27:42;;;;;;;6.67;3.90;;;;;;;20.86;64.85;99956.41;12226507;19;20413;-85
2023/06/06 07:31:44;;;;;;;5.38;3.88;;;;;;;21.04;63.70;99943.38;12234484;19;20098;-84
2023/06/06 07:35:46;;;;;;;5.03;3.45;;;;;;;21.22;61.64;99949.97;12204870;19;20018;-84
2023/06/06 07:39:51;;;;;;;5.78;4.28;;;;;;;21.28;61.05;99948.69;12225037;19;20006;-85
2023/06/06 07:44:01;;;;;;;9.32;3.70;;;;;;;21.53;60.08;99941.63;12209167;19;20031;-85
2023/06/06 07:48:07;;;;;;;5.63;4.22;;;;;;;21.76;59.66;99942.44;12225086;19;20038;-84
2023/06/06 07:52:11;;;;;;;;;;;;;;;21.87;58.30;99940.19;12230255;19;20013;-84
2023/06/06 07:56:14;;;;;;;;;;;;;;;21.97;58.04;99936.28;12206810;19;22257;-85
2023/06/06 08:00:18;;;;;;;5.90;3.65;;;;;;;22.19;57.78;99935.41;12223234;19;19910;-83
2023/06/06 08:04:20;;;;;;;6.28;4.22;;;;;;;22.34;55.93;99934.13;12233184;19;20010;-83
2023/06/06 08:08:22;;;;;;;5.43;3.27;;;;;;;22.52;54.85;99924.63;12202482;19;20495;-84
2023/06/06 08:12:26;;;;;;;6.55;3.95;;;;;;;22.69;53.95;99926.59;12221677;19;20082;-83
2023/06/06 08:21:15;;;;;;;7.18;4.10;;;;;;;23.14;51.66;99929.16;12220313;19;20381;-84
2023/06/06 08:25:17;;;;;;;;;;;;;;;23.32;50.49;99929.97;12220900;19;20352;-84
2023/06/06 08:29:19;;;;;;;7.50;3.80;;;;;;;23.50;49.49;99927.94;12202471;19;20691;-84
2023/06/06 08:33:22;;;;;;;5.60;4.00;;;;;;;23.61;49.12;99927.25;12224765;19;20127;-84
2023/06/06 08:37:23;;;;;;;5.27;3.50;;;;;;;23.75;48.83;99923.47;12224073;19;20007;-83
2023/06/06 08:41:30;;;;;;;9.55;4.25;;;;;;;23.84;47.98;99918.63;12202191;19;20010;-83
2023/06/06 08:45:32;;;;;;;5.45;3.65;;;;;;;23.93;47.85;99924.25;12222406;19;20464;-83
2023/06/06 08:49:36;;;;;;;5.05;3.50;;;;;;;23.94;46.33;99923.06;12219973;19;20106;-84
2023/06/06 08:53:43;;;;;;;5.50;3.80;;;;;;;23.92;46.31;99922.59;12209242;19;20033;-84
2023/06/06 08:57:47;;;;;;;6.43;4.28;;;;;;;23.95;45.61;99924.75;12224975;19;20018;-84
2023/06/06 09:01:53;;;;;;;6.15;4.03;;;;;;;24.03;45.86;99919.03;12228598;19;20007;-85
2023/06/06 09:06:01;;;;;;;9.52;4.25;;;;;;;24.19;45.71;99924.97;12200824;19;20007;-82
2023/06/06 09:10:06;;;;;;;7.25;3.70;;;;;;;24.34;44.60;99926.38;12216803;19;20030;-83
2023/06/06 09:14:10;;;;;;;7.35;4.50;;;;;;;24.61;44.01;99924.25;12199532;19;20007;-86
2023/06/06 09:18:19;;;;;;;5.95;3.25;;;;;;;24.85;44.79;99918.78;12230116;19;20085;-85
2023/06/06 09:22:21;;;;;;;5.88;3.85;;;;;;;25.17;45.12;99919.22;12222151;19;20010;-83
2023/06/06 09:26:26;;;;;;;10.53;4.07;;;;;;;25.35;43.57;99919.88;12202574;19;20046;-83
2023/06/06 09:30:31;;;;;;;8.10;4.47;;;;;;;25.29;43.28;99910.00;12224994;19;20006;-83
2023/06/06 09:34:39;;;;;;;6.97;4.65;;;;;;;25.18;41.53;99907.59;12218756;19;20006;-83
2023/06/06 09:38:47;;;;;;;7.10;4.82;;;;;;;25.02;42.46;99906.56;12198408;19;20475;-84
2023/06/06 09:42:49;;;;;;;6.13;4.32;;;;;;;25.27;41.46;99901.88;12212211;19;20018;-82
2023/06/06 09:47:02;;;;;;;6.28;3.83;;;;;;;25.51;40.80;99900.31;12193777;19;20015;-83
2023/06/06 09:51:05;;;;;;;6.82;3.70;;;;;;;25.89;39.78;99895.25;12211921;19;20014;-83
2023/06/06 09:55:13;;;;;;;7.57;3.90;;;;;;;26.04;38.07;99892.91;12212967;19;20014;-84
2023/06/06 09:59:16;;;;;;;9.23;3.45;;;;;;;25.96;37.40;99893.84;12192460;19;20010;-83
2023/06/06 10:03:21;;;;;;;11.60;3.53;;;;;;;26.11;36.93;99893.16;12216172;19;20033;-83
2023/06/06 10:07:26;;;;;;;13.77;4.10;;;;;;;26.35;36.42;99897.97;12213387;19;20024;-83
2023/06/06 10:11:29;;;;;;;11.05;3.70;;;;;;;26.45;36.25;99893.84;12190255;19;20006;-83
2023/06/06 10:15:31;;;;;;;4.68;3.10;;;;;;;26.52;32.90;99883.63;12211379;19;20021;-82
2023/06/06 10:19:36;;;;;;;7.55;3.38;;;;;;;26.54;31.67;99880.47;12212808;19;20015;-82
2023/06/06 10:23:38;;;;;;;6.50;3.17;;;;;;;26.42;32.82;99884.09;12193110;19;20011;-82
2023/06/06 10:27:56;;;;;;;7.05;3.20;;;;;;;26.60;32.43;99873.38;12218387;19;20017;-84
2023/06/06 10:32:12;;;;;;;8.25;3.53;;;;;;;26.66;30.97;99876.78;12199409;19;20029;-81
2023/06/06 10:36:19;;;;;;;6.85;3.15;;;;;;;26.62;32.02;99868.16;12231134;19;20021;-82
2023/06/06 10:40:24;;;;;;;12.00;3.63;;;;;;;26.89;30.57;99869.44;12245791;19;20543;-84
2023/06/06 10:44:41;;;;;;;12.20;3.53;;;;;;;27.15;30.92;99865.34;12213054;19;20017;-83
2023/06/06 10:48:53;;;;;;;4.50;3.15;;;;;;;27.20;29.95;99867.91;12230089;19;20011;-84
2023/06/06 10:53:06;;;;;;;8.70;3.35;;;;;;;27.35;29.61;99874.81;12203923;19;20353;-82
2023/06/06 10:57:15;;;;;;;4.53;2.90;;;;;;;27.53;28.76;99863.97;12226173;19;20519;-80
2023/06/06 11:01:16;;;;;;;4.40;2.83;;;;;;;27.58;28.09;99858.88;12226049;19;20010;-80
2023/06/06 11:05:21;;;;;;;4.57;3.20;;;;;;;27.74;29.31;99861.69;12204562;19;20075;-82
2023/06/06 11:09:28;;;;;;;10.35;4.22;;;;;;;28.18;28.78;99844.63;12224992;19;20082;-83
2023/06/06 11:13:33;;;;;;;5.50;3.40;;;;;;;28.48;28.43;99844.97;12221855;19;20006;-82
2023/06/06 11:17:47;;;;;;;7.78;3.47;;;;;;;28.72;28.72;99843.88;12202697;19;20767;-82
2023/06/06 11:21:50;;;;;;;6.53;3.50;;;;;;;29.03;28.44;99834.47;12222630;19;20023;-82
2023/06/06 11:25:52;;;;;;;4.93;3.30;;;;;;;29.07;28.37;99838.19;12220608;19;20021;-81
2023/06/06 11:29:54;;;;;;;7.03;3.30;;;;;;;28.95;28.64;99838.31;12220131;19;20014;-81
2023/06/06 11:34:11;;;;;;;5.07;3.28;;;;;;;27.91;28.90;99832.25;12217792;19;20042;-80
2023/06/06 11:38:13;;;;;;;12.30;5.07;;;;;;;27.84;29.80;99829.22;12197349;19;20012;-82
2023/06/06 11:42:19;;;;;;;5.53;3.33;;;;;;;28.73;28.69;99822.00;12219921;19;20006;-83
2023/06/06 11:46:20;;;;;;;6.38;4.00;;;;;;;29.33;26.77;99824.47;12220579;19;20002;-82
2023/06/06 11:50:31;;;;;;;6.28;3.60;;;;;;;29.68;26.54;99816.63;12194521;19;20094;-83
2023/06/06 11:54:37;;;;;;;4.22;2.92;;;;;;;29.79;26.56;99822.50;12219218;19;20018;-80
2023/06/06 11:58:41;;;;;;;8.18;2.88;;;;;;;28.98;27.25;99831.88;12222303;19;20006;-80
2023/06/06 12:02:48;;;;;;;11.57;3.22;;;;;;;28.13;28.06;99828.72;12195868;19;20085;-80
2023/06/06 12:06:52;;;;;;;7.95;3.20;;;;;;;27.93;28.60;99822.19;12219441;19;20007;-81
2023/06/06 12:10:54;;;;;;;5.47;3.00;;;;;;;28.82;27.83;99816.94;12195816;19;20027;-82
2023/06/06 12:14:58;;;;;;;6.93;3.13;;;;;;;29.74;26.46;99820.78;12217562;19;20005;-82
2023/06/06 12:19:02;;;;;;;5.13;3.58;;;;;;;30.67;25.34;99818.63;12218246;19;20010;-81
2023/06/06 12:23:04;;;;;;;5.38;3.35;;;;;;;31.58;24.64;99805.06;12192050;19;20039;-82
2023/06/06 12:27:11;;;;;;;12.20;3.75;;;;;;;31.82;24.17;99812.19;12211650;19;20003;-81
2023/06/06 12:31:21;;;;;;;5.93;3.42;;;;;;;32.76;22.84;99805.16;12217456;19;20094;-82
2023/06/06 12:35:24;;;;;;;5.80;3.45;;;;;;;33.53;21.85;99803.81;12195877;19;20041;-82
2023/06/06 12:39:28;;;;;;;5.70;3.40;;;;;;;33.61;22.09;99795.22;12216296;19;20038;-82
2023/06/06 12:43:31;;;;;;;8.55;4.30;;;;;;;32.18;23.39;99799.06;12217353;19;20002;-82
2023/06/06 12:47:35;;;;;;;5.43;4.07;;;;;;;32.05;23.85;99791.25;12200077;19;20074;-81
2023/06/06 12:51:40;;;;;;;6.20;4.60;;;;;;;34.05;22.34;99794.84;12214442;19;20107;-80
2023/06/06 12:55:43;;;;;;;6.30;3.90;;;;;;;35.57;21.37;99791.84;12218526;19;20732;-83
2023/06/06 12:59:48;;;;;;;6.43;3.92;;;;;;;36.47;20.79;99788.16;12202393;19;20397;-81
2023/06/06 13:03:52;;;;;;;6.32;4.60;;;;;;;36.43;20.72;99788.22;12221053;19;20014;-83
2023/06/06 13:07:56;;;;;;;5.90;4.30;;;;;;;36.47;20.21;99799.63;12199594;19;20017;-82
2023/06/06 13:11:59;;;;;;;5.95;4.20;;;;;;;36.11;20.96;99791.41;12220257;19;20518;-86
2023/06/06 13:16:01;;;;;;;6.82;4.28;;;;;;;35.69;21.29;99793.38;12220035;19;20006;-84
2023/06/06 13:20:06;;;;;;;5.93;4.35;;;;;;;36.82;20.27;99778.34;12194489;19;20017;-85
2023/06/06 13:24:09;;;;;;;5.93;4.10;;;;;;;37.78;19.26;99776.16;12215367;19;20007;-84
2023/06/06 13:28:11;;;;;;;7.78;4.38;;;;;;;37.66;19.79;99791.16;12215914;19;20018;-83
2023/06/06 13:32:15;;;;;;;7.50;4.15;;;;;;;38.38;19.98;99799.34;12193061;19;20018;-82
2023/06/06 13:36:17;;;;;;;7.03;3.70;;;;;;;39.21;18.64;99792.75;12214717;19;20010;-83
2023/06/06 13:40:19;;;;;;;10.20;4.55;;;;;;;37.50;19.79;99793.88;12217506;19;20058;-83
2023/06/06 13:44:23;;;;;;;8.77;4.13;;;;;;;35.02;21.70;99792.53;12191318;19;20015;-82
2023/06/06 13:48:24;;;;;;;5.00;3.70;;;;;;;33.09;24.08;99790.63;12217430;19;20017;-82
2023/06/06 13:52:27;;;;;;;5.50;4.18;;;;;;;31.72;25.38;99793.81;12208477;19;20006;-84
2023/06/06 13:56:29;;;;;;;5.47;4.15;;;;;;;31.57;25.72;99791.22;12193189;19;20657;-84
2023/06/06 14:00:32;;;;;;;7.75;3.92;;;;;;;30.74;26.58;99804.47;12227452;19;20006;-82
2023/06/06 14:04:36;;;;;;;6.28;4.13;;;;;;;31.06;27.02;99792.72;12225769;19;20107;-82
2023/06/06 14:08:39;;;;;;;8.23;3.80;;;;;;;33.79;24.14;99782.59;12205718;19;20035;-83
2023/06/06 14:12:47;;;;;;;7.40;4.10;;;;;;;35.85;22.26;99777.72;12221883;19;20526;-82
2023/06/06 14:16:49;;;;;;;5.55;4.05;;;;;;;37.63;20.73;99766.97;12227971;19;20011;-82
2023/06/06 14:21:10;;;;;;;7.38;4.15;;;;;;;38.66;18.54;99771.28;12206574;19;20075;-84
2023/06/06 14:25:14;;;;;;;4.72;3.92;;;;;;;39.17;17.81;99771.81;12224785;19;20065;-86
2023/06/06 14:29:16;;;;;;;4.55;3.35;;;;;;;39.86;17.15;99763.19;12203745;19;20064;-84
2023/06/06 14:33:18;;;;;;;5.10;3.00;;;;;;;39.90;16.76;99769.69;12221485;19;20019;-83
2023/06/06 14:37:21;;;;;;;6.57;3.35;;;;;;;37.44;18.66;99766.84;12227859;19;20006;-81
2023/06/06 14:41:25;;;;;;;5.22;2.70;;;;;;;35.70;19.69;99763.50;12202714;19;20355;-86
2023/06/06 14:45:27;;;;;;;6.35;3.17;;;;;;;33.89;21.35;99765.84;12226089;19;20031;-82
2023/06/06 14:49:30;;;;;;;9.27;3.00;;;;;;;32.12;23.23;99777.03;12229510;19;20003;-82
2023/06/06 14:53:35;;;;;;;8.52;3.03;;;;;;;31.01;24.23;99784.50;12205136;19;20345;-81
2023/06/06 14:57:37;;;;;;;6.18;3.00;;;;;;;30.18;24.94;99779.69;12232696;19;20010;-81
2023/06/06 15:01:43;;;;;;;4.65;2.95;;;;;;;29.35;25.66;99774.66;12230450;19;20025;-81
2023/06/06 15:05:45;;;;;;;9.95;2.83;;;;;;;29.92;25.62;99772.81;12206534;19;20515;-81
2023/06/06 15:09:50;;;;;;;5.55;2.60;;;;;;;32.60;23.58;99763.50;12231928;19;20015;-83
2023/06/06 15:13:53;;;;;;;4.32;2.90;;;;;;;34.74;20.92;99775.50;12207692;19;20018;-82
2023/06/06 15:17:57;;;;;;;5.20;3.10;;;;;;;35.43;20.71;99769.00;12228343;19;20086;-83
2023/06/06 15:22:03;;;;;;;6.80;3.38;;;;;;;34.15;21.02;99759.72;12233319;19;20006;-82
2023/06/06 15:26:07;;;;;;;12.52;3.83;;;;;;;32.53;23.15;99766.31;12214199;19;20014;-82
2023/06/06 15:30:09;;;;;;;4.97;3.30;;;;;;;31.37;23.75;99762.16;12233663;19;20467;-82
2023/06/06 15:34:11;;;;;;;8.57;4.53;;;;;;;30.39;24.81;99762.16;12227192;19;20432;-82
2023/06/06 15:38:16;;;;;;;7.93;2.85;;;;;;;29.71;25.38;99759.09;12207230;19;20018;-81
2023/06/06 15:42:17;;;;;;;5.72;2.75;;;;;;;29.29;26.03;99767.66;12226653;19;20076;-81
2023/06/06 15:46:20;;;;;;;6.00;3.00;;;;;;;28.79;25.90;99761.81;12230315;19;20014;-81
2023/06/06 15:50:24;;;;;;;6.90;3.35;;;;;;;28.55;26.74;99760.06;12213185;19;20010;-81
2023/06/06 15:54:26;;;;;;;4.85;2.70;;;;;;;28.19;26.48;99772.63;12237615;19;20017;-81
2023/06/06 15:58:28;;;;;;;8.43;2.88;;;;;;;27.75;26.76;99769.09;12255222;19;20006;-81
2023/06/06 16:02:31;;;;;;;5.35;3.05;;;;;;;27.42;27.41;99759.78;12235118;19;20010;-84
2023/06/06 16:06:33;;;;;;;6.35;2.60;;;;;;;27.11;28.46;99756.91;12247963;19;20078;-81
2023/06/06 16:10:36;;;;;;;5.43;2.63;;;;;;;26.97;28.10;99751.69;12244390;19;20010;-81
2023/06/06 16:14:38;;;;;;;4.45;2.30;;;;;;;26.82;28.36;99762.59;12220096;19;20006;-81
2023/06/06 16:18:40;;;;;;;5.90;3.15;;;;;;;26.51;29.05;99765.31;12235969;19;20005;-81
2023/06/06 16:22:43;;;;;;;4.78;3.08;;;;;;;26.74;28.51;99765.56;12237105;19;20006;-81
2023/06/06 16:26:46;;;;;;;7.80;3.17;;;;;;;26.54;28.90;99761.78;12215404;19;20003;-80
2023/06/06 16:30:50;;;;;;;7.18;3.28;;;;;;;26.30;29.05;99765.47;12234893;19;20003;-81
2023/06/06 16:34:52;;;;;;;3.63;2.42;;;;;;;26.12;29.40;99762.09;12227732;19;20006;-81
2023/06/06 16:38:55;;;;;;;5.80;2.30;;;;;;;26.04;29.86;99768.69;12234981;19;20009;-80
2023/06/06 16:42:57;;;;;;;6.15;2.53;;;;;;;25.77;30.16;99771.03;12229008;19;20002;-81
2023/06/06 16:46:59;;;;;;;6.32;2.83;;;;;;;25.66;30.33;99781.13;12212618;19;20651;-81
2023/06/06 16:51:01;;;;;;;5.28;2.55;;;;;;;25.58;29.92;99776.41;12238321;19;20021;-82
2023/06/06 16:55:04;;;;;;;5.87;2.43;;;;;;;25.36;30.44;99781.31;12243286;19;20011;-81
2023/06/06 16:59:07;;;;;;;5.28;2.33;;;;;;;25.23;30.63;99769.19;12215142;19;20238;-81
2023/06/06 17:03:09;;;;;;;7.65;2.72;;;;;;;25.10;31.24;99777.94;12229526;19;20018;-80
2023/06/06 17:07:12;;;;;;;5.65;3.00;;;;;;;25.05;31.10;99770.53;12231924;19;20013;-81
2023/06/06 17:11:15;;;;;;;7.63;2.67;;;;;;;24.96;31.55;99779.09;12206222;19;20014;-81
2023/06/06 17:15:18;;;;;;;3.63;2.55;;;;;;;24.81;31.24;99776.94;12225011;19;20010;-81
2023/06/06 17:19:20;;;;;;;;;;;;;;;24.62;31.16;99776.59;12225526;19;20468;-80
2023/06/06 17:23:22;;;;;;;6.60;2.80;;;;;;;24.61;31.34;99772.13;12197751;19;19922;-80
2023/06/06 17:27:24;;;;;;;7.72;2.90;;;;;;;24.54;31.58;99773.50;12219346;19;20074;-79
2023/06/06 17:31:30;;;;;;;9.48;2.30;;;;;;;24.43;32.04;99777.09;12222050;19;20026;-80
2023/06/06 17:35:33;;;;;;;4.28;2.47;;;;;;;24.44;31.78;99785.19;12205052;19;20542;-80
2023/06/06 17:39:35;;;;;;;5.50;2.50;;;;;;;24.34;32.63;99782.75;12227170;19;20370;-81
2023/06/06 17:43:37;;;;;;;5.63;2.50;;;;;;;24.14;32.23;99784.38;12225487;19;20018;-82
2023/06/06 17:47:39;;;;;;;;;;;;;;;23.95;32.45;99784.03;12201398;19;20054;-81
2023/06/06 17:51:42;;;;;;;7.70;3.53;;;;;;;23.83;32.86;99784.75;12223593;19;19924;-81
2023/06/06 17:55:44;;;;;;;3.92;2.33;;;;;;;23.70;33.12;99794.22;12224373;19;20006;-81
2023/06/06 17:59:45;;;;;;;4.03;2.78;;;;;;;23.58;33.62;99804.19;12202315;19;20033;-80
2023/06/06 18:03:49;;;;;;;6.15;2.90;;;;;;;23.47;33.35;99791.66;12225174;19;20482;-80
2023/06/06 18:07:51;;;;;;;5.83;2.60;;;;;;;23.41;33.38;99802.28;12226239;19;20011;-79
2023/06/06 18:11:56;;;;;;;6.90;3.00;;;;;;;23.28;33.89;99808.91;12205098;19;20251;-79
2023/06/06 18:15:58;;;;;;;4.70;2.17;;;;;;;23.18;33.97;99807.28;12228421;19;20058;-81
2023/06/06 18:19:59;;;;;;;4.33;2.40;;;;;;;23.02;34.04;99803.34;12208324;19;20014;-81
2023/06/06 18:24:04;;;;;;;5.18;2.58;;;;;;;22.91;34.68;99813.28;12229173;19;20463;-81
2023/06/06 18:28:05;;;;;;;3.65;2.13;;;;;;;22.83;34.85;99819.72;12226531;19;20520;-81
2023/06/06 18:32:09;;;;;;;4.63;2.63;;;;;;;22.67;35.72;99806.19;12205947;19;20018;-81
2023/06/06 18:36:12;;;;;;;4.80;2.20;;;;;;;22.49;35.85;99818.56;12228428;19;20015;-82
2023/06/06 18:40:19;;;;;;;3.90;2.50;;;;;;;22.29;36.09;99820.03;12230420;19;20026;-82
2023/06/06 18:44:21;;;;;;;5.60;2.30;;;;;;;22.07;36.25;99820.94;12206918;19;20385;-82
2023/06/06 18:48:24;;;;;;;3.92;2.50;;;;;;;21.84;37.17;99818.25;12235899;19;20045;-82
2023/06/06 18:52:27;;;;;;;3.53;2.25;;;;;;;21.59;38.12;99822.59;12233981;19;20468;-82
2023/06/06 18:56:29;;;;;;;3.47;2.10;;;;;;;21.33;39.03;99825.25;12216299;19;20419;-82
2023/06/06 19:00:32;;;;;;;5.03;2.17;;;;;;;21.08;39.39;99823.09;12233740;19;20021;-81
2023/06/06 19:04:34;;;;;;;4.40;2.60;;;;;;;20.85;40.22;99825.94;12235878;19;20017;-81